Time;durP1;ratioP1;P1;durP2;ratioP2;P2;SDS_P1;SDS_P2;PMS_P1;PMS_P2;Temp;Humidity;BMP_temperature;BMP_pressure;BME280_temperature;BME280_humidity;BME280_pressure;Samples;Min_cycle;Max_cycle;Signal;HPM_P1;HPM_P2
2024/01/19 00:01:18;;;;;;;12.77;0.97;;;;;;;8.69;48.56;101442.72;5049312;28;20032;-73
2024/01/19 00:03:44;;;;;;;0.37;0.37;;;;;;;9.09;47.22;101440.34;5050910;28;20057;-73
2024/01/19 00:06:10;;;;;;;1.27;0.60;;;;;;;9.14;47.07;101447.34;5051294;28;20069;-73
2024/01/19 00:08:35;;;;;;;0.50;0.50;;;;;;;9.06;47.46;101442.97;5050486;28;20056;-73
2024/01/19 00:11:01;;;;;;;2.47;0.60;;;;;;;9.32;46.90;101438.72;5050933;28;20056;-73
2024/01/19 00:13:26;;;;;;;0.43;0.40;;;;;;;9.13;47.02;101434.28;5049840;28;20064;-73
2024/01/19 00:15:52;;;;;;;0.50;0.50;;;;;;;9.41;46.54;101435.31;5050021;28;20025;-73
2024/01/19 00:18:18;;;;;;;0.87;0.87;;;;;;;9.32;45.96;101440.47;5051156;28;20551;-72
2024/01/19 00:20:43;;;;;;;0.70;0.70;;;;;;;9.56;45.61;101444.94;5050551;28;20048;-73
2024/01/19 00:23:08;;;;;;;1.40;0.70;;;;;;;9.29;45.74;101441.34;5049116;28;20645;-73
2024/01/19 00:25:34;;;;;;;0.57;0.53;;;;;;;8.52;47.81;101451.25;5049066;28;20021;-73
2024/01/19 00:27:59;;;;;;;0.97;0.57;;;;;;;8.66;47.97;101456.59;5049050;28;20025;-73
2024/01/19 00:30:25;;;;;;;3.93;0.70;;;;;;;9.13;46.21;101449.94;5049254;28;20116;-72
2024/01/19 00:32:50;;;;;;;0.67;0.50;;;;;;;8.88;46.59;101447.19;5049030;28;20070;-72
2024/01/19 00:35:15;;;;;;;3.80;1.03;;;;;;;7.99;49.11;101455.06;5050704;28;20021;-72
2024/01/19 00:37:41;;;;;;;1.03;0.80;;;;;;;8.55;48.00;101459.09;5049913;28;20112;-72
2024/01/19 00:40:11;;;;;;;2.60;1.13;;;;;;;8.80;47.15;101464.50;5050928;28;20075;-73
2024/01/19 00:42:38;;;;;;;4.20;1.03;;;;;;;8.51;47.77;101465.13;5049766;28;20032;-73
2024/01/19 00:45:05;;;;;;;1.37;0.80;;;;;;;8.99;46.84;101463.75;5050462;28;20448;-73
2024/01/19 00:47:31;;;;;;;1.80;0.87;;;;;;;8.42;48.08;101471.13;5052673;28;20049;-72
2024/01/19 00:49:56;;;;;;;1.93;0.90;;;;;;;8.73;47.57;101480.97;5054765;28;20031;-72
2024/01/19 00:52:21;;;;;;;3.30;1.00;;;;;;;8.86;46.55;101481.91;5054758;28;20052;-72
2024/01/19 00:54:47;;;;;;;0.63;0.60;;;;;;;9.54;44.99;101472.75;5054416;28;20441;-73
2024/01/19 00:57:12;;;;;;;3.80;0.83;;;;;;;8.93;46.39;101483.69;5054041;28;20036;-73
2024/01/19 00:59:38;;;;;;;1.47;0.70;;;;;;;8.41;47.65;101478.94;5054593;28;20036;-73
2024/01/19 01:02:03;;;;;;;1.33;0.83;;;;;;;8.98;46.79;101474.19;5053943;28;20085;-73
2024/01/19 01:04:29;;;;;;;1.43;0.90;;;;;;;8.56;47.32;101479.09;5052648;28;20025;-73
2024/01/19 01:06:54;;;;;;;3.60;0.77;;;;;;;8.49;47.79;101482.50;5050429;28;20114;-73
2024/01/19 01:09:20;;;;;;;5.20;0.70;;;;;;;8.99;46.53;101479.41;5034514;28;20025;-74
2024/01/19 01:11:45;;;;;;;1.07;0.70;;;;;;;9.34;45.80;101481.38;5045147;28;20039;-73
2024/01/19 01:14:11;;;;;;;0.93;0.70;;;;;;;8.88;46.78;101491.50;5054096;28;20497;-73
2024/01/19 01:16:36;;;;;;;3.97;0.83;;;;;;;9.55;44.61;101479.75;5052214;28;20039;-72
2024/01/19 01:19:02;;;;;;;2.07;0.80;;;;;;;8.76;46.28;101492.28;5053800;28;20036;-73
2024/01/19 01:21:27;;;;;;;1.43;0.83;;;;;;;9.32;45.29;101485.69;5053851;28;20151;-73
2024/01/19 01:23:53;;;;;;;1.23;1.03;;;;;;;9.38;44.73;101484.84;5053723;28;20029;-73
2024/01/19 01:26:18;;;;;;;0.80;0.73;;;;;;;8.87;46.09;101497.56;5052541;28;20025;-74
2024/01/19 01:28:43;;;;;;;1.70;0.67;;;;;;;9.04;45.76;101492.50;5052704;28;20028;-73
2024/01/19 01:31:09;;;;;;;4.50;1.20;;;;;;;8.43;47.41;101498.03;5052162;28;20028;-73
2024/01/19 01:33:35;;;;;;;3.77;0.97;;;;;;;8.58;46.77;101498.19;5053188;28;20091;-73
2024/01/19 01:36:00;;;;;;;11.33;1.20;;;;;;;8.70;46.19;101501.81;5054145;28;20104;-72
2024/01/19 01:38:26;;;;;;;2.00;0.70;;;;;;;9.10;45.30;101502.09;5053718;28;20108;-73
2024/01/19 01:40:51;;;;;;;0.70;0.70;;;;;;;8.44;46.58;101507.59;5052772;28;20040;-73
2024/01/19 01:43:24;;;;;;;3.73;1.27;;;;;;;8.57;46.44;101506.91;5054178;28;20056;-73
2024/01/19 01:45:51;;;;;;;1.57;0.70;;;;;;;8.58;45.66;101508.63;5048861;28;20118;-73
2024/01/19 01:48:18;;;;;;;0.93;0.83;;;;;;;8.89;45.12;101514.13;5048631;28;20136;-73
2024/01/19 01:50:43;;;;;;;9.63;1.40;;;;;;;8.78;44.97;101505.34;5053384;28;20017;-73
2024/01/19 01:53:10;;;;;;;3.33;1.20;;;;;;;8.80;44.97;101508.81;5048813;28;20032;-73
2024/01/19 01:55:36;;;;;;;10.37;1.60;;;;;;;8.68;44.99;101506.97;5031793;28;20032;-73
2024/01/19 01:58:01;;;;;;;2.10;0.70;;;;;;;8.40;45.32;101524.06;5044437;28;20033;-72
2024/01/19 02:00:29;;;;;;;7.27;1.20;;;;;;;8.81;44.37;101521.00;5053311;28;20029;-73
2024/01/19 02:02:55;;;;;;;5.33;1.50;;;;;;;9.03;43.82;101521.19;5053548;28;20029;-73
2024/01/19 02:05:20;;;;;;;4.87;1.23;;;;;;;9.03;44.00;101526.41;5053468;28;20025;-73
2024/01/19 02:07:46;;;;;;;3.53;1.27;;;;;;;9.43;42.70;101526.66;5052676;28;20029;-73
2024/01/19 02:10:12;;;;;;;1.30;1.03;;;;;;;8.80;44.08;101534.88;5053643;28;20049;-73
2024/01/19 02:12:37;;;;;;;4.03;1.70;;;;;;;9.11;43.56;101537.75;5051336;28;20025;-73
2024/01/19 02:15:03;;;;;;;5.60;1.30;;;;;;;9.11;43.25;101541.22;5052268;28;20029;-73
2024/01/19 02:17:31;;;;;;;2.20;1.03;;;;;;;8.69;44.25;101552.19;5051748;28;20039;-73
2024/01/19 02:19:57;;;;;;;8.20;0.80;;;;;;;8.76;43.85;101548.75;5051770;28;20029;-73
2024/01/19 02:22:22;;;;;;;1.43;0.70;;;;;;;8.27;44.53;101550.00;5050973;28;20067;-73
2024/01/19 02:24:47;;;;;;;11.80;1.00;;;;;;;8.71;43.74;101547.84;5052542;28;20464;-73
2024/01/19 02:27:14;;;;;;;7.77;1.50;;;;;;;8.75;44.13;101549.59;5051732;28;20081;-73
2024/01/19 02:29:47;;;;;;;4.77;0.80;;;;;;;8.77;43.89;101550.50;5050404;28;20074;-72
2024/01/19 02:32:12;;;;;;;4.53;1.30;;;;;;;9.01;43.36;101552.44;5053412;28;20029;-73
2024/01/19 02:34:37;;;;;;;3.10;1.10;;;;;;;9.08;42.84;101555.97;5052245;28;20029;-72
2024/01/19 02:37:03;;;;;;;6.63;1.13;;;;;;;8.57;44.05;101563.34;5052300;28;20473;-73
2024/01/19 02:39:29;;;;;;;2.97;1.03;;;;;;;8.81;43.44;101557.50;5052663;28;20021;-73
2024/01/19 02:41:54;;;;;;;1.47;1.30;;;;;;;8.60;44.03;101564.25;5052697;28;20040;-72
2024/01/19 02:44:19;;;;;;;3.53;1.53;;;;;;;9.24;42.72;101565.66;5047421;28;20030;-73
2024/01/19 02:46:45;;;;;;;5.67;1.37;;;;;;;8.33;44.49;101565.66;5041497;28;20061;-72
2024/01/19 02:49:10;;;;;;;1.17;1.03;;;;;;;9.13;42.41;101559.50;5052213;28;20503;-73
2024/01/19 02:51:35;;;;;;;9.20;2.20;;;;;;;8.62;43.52;101557.31;5052116;28;20035;-73
2024/01/19 02:54:01;;;;;;;5.67;1.67;;;;;;;9.13;42.60;101562.09;5052716;28;20090;-72
2024/01/19 02:56:26;;;;;;;10.53;1.70;;;;;;;9.27;42.31;101560.47;5052051;28;20064;-72
2024/01/19 02:58:51;;;;;;;6.10;1.10;;;;;;;8.85;43.02;101569.69;5051448;28;20048;-72
2024/01/19 03:01:18;;;;;;;5.70;1.60;;;;;;;8.87;43.25;101559.28;5052564;28;20025;-71
2024/01/19 03:03:43;;;;;;;3.37;1.40;;;;;;;8.47;44.21;101570.19;5051640;28;20484;-72
2024/01/19 03:06:09;;;;;;;2.27;1.53;;;;;;;8.81;43.73;101573.13;5050791;28;20063;-72
2024/01/19 03:08:34;;;;;;;2.53;1.40;;;;;;;8.79;43.54;101570.53;5051972;28;20028;-72
2024/01/19 03:10:59;;;;;;;4.07;1.40;;;;;;;8.57;43.40;101585.09;5051028;28;20469;-72
2024/01/19 03:13:25;;;;;;;7.00;2.07;;;;;;;8.91;42.90;101589.72;5052210;28;20059;-72
2024/01/19 03:15:50;;;;;;;3.97;1.70;;;;;;;8.57;43.43;101590.28;5051326;28;20465;-71
2024/01/19 03:18:16;;;;;;;3.23;1.53;;;;;;;8.29;44.70;101589.94;5051815;28;20021;-72
2024/01/19 03:20:41;;;;;;;2.80;1.30;;;;;;;8.64;44.16;101591.19;5051608;28;20480;-72
2024/01/19 03:23:08;;;;;;;3.50;1.53;;;;;;;9.16;42.85;101596.03;5052020;28;20028;-72
2024/01/19 03:25:33;;;;;;;7.00;1.40;;;;;;;9.25;42.46;101588.28;5051073;28;20103;-72
2024/01/19 03:27:58;;;;;;;2.87;1.90;;;;;;;9.42;42.40;101588.38;5050681;28;20112;-72
2024/01/19 03:30:24;;;;;;;5.87;1.80;;;;;;;8.69;44.32;101596.47;5051662;28;20029;-72
2024/01/19 03:32:49;;;;;;;4.37;1.80;;;;;;;9.05;43.18;101589.84;5051068;28;20406;-72
2024/01/19 03:35:15;;;;;;;4.27;1.90;;;;;;;9.02;43.16;101587.22;5052013;28;20445;-72
2024/01/19 03:37:40;;;;;;;1.80;1.10;;;;;;;9.21;42.56;101583.91;5050773;28;20032;-72
2024/01/19 03:40:06;;;;;;;3.20;2.10;;;;;;;9.29;42.47;101586.56;5049805;28;20400;-72
2024/01/19 03:42:31;;;;;;;6.60;2.70;;;;;;;9.36;42.80;101593.56;5051295;28;20112;-72
2024/01/19 03:44:57;;;;;;;5.07;1.60;;;;;;;8.84;43.17;101599.22;5046728;28;20104;-72
2024/01/19 03:47:22;;;;;;;3.50;2.00;;;;;;;8.82;43.49;101600.97;5031193;28;20520;-72
2024/01/19 03:49:47;;;;;;;8.17;1.70;;;;;;;8.69;43.69;101604.31;5045232;28;20361;-72
2024/01/19 03:52:13;;;;;;;14.20;2.27;;;;;;;8.58;43.86;101602.44;5050077;28;20061;-72
2024/01/19 03:54:39;;;;;;;3.23;1.43;;;;;;;8.64;43.87;101605.13;5048937;28;20076;-72
2024/01/19 03:57:06;;;;;;;6.10;2.97;;;;;;;8.73;43.52;101609.56;5051652;28;20027;-72
2024/01/19 03:59:32;;;;;;;4.23;2.33;;;;;;;8.94;43.36;101606.28;5045558;28;20029;-71
2024/01/19 04:01:57;;;;;;;4.87;2.50;;;;;;;9.07;42.66;101611.63;5057009;28;20025;-72
2024/01/19 04:04:24;;;;;;;6.73;1.97;;;;;;;8.93;43.24;101614.06;5049674;28;20036;-72
2024/01/19 04:06:52;;;;;;;8.43;2.70;;;;;;;8.92;43.19;101623.66;5050560;28;20083;-72
2024/01/19 04:09:18;;;;;;;13.43;2.10;;;;;;;8.97;43.22;101621.97;5049776;28;20554;-72
2024/01/19 04:11:44;;;;;;;4.87;1.80;;;;;;;9.43;42.30;101620.59;5048976;28;20115;-71
2024/01/19 04:14:10;;;;;;;1.97;1.77;;;;;;;8.91;43.35;101621.88;5049563;28;20025;-71
2024/01/19 04:16:35;;;;;;;16.77;2.70;;;;;;;8.60;44.09;101621.59;5050542;28;20412;-73
2024/01/19 04:19:03;;;;;;;6.73;2.17;;;;;;;8.83;44.01;101618.34;5050569;28;20028;-70
2024/01/19 04:21:30;;;;;;;3.30;2.10;;;;;;;8.93;44.13;101614.97;5048500;28;20041;-72
2024/01/19 04:23:55;;;;;;;4.93;2.13;;;;;;;8.52;44.82;101622.34;5051209;28;20461;-72
2024/01/19 04:26:21;;;;;;;13.13;2.77;;;;;;;9.19;43.48;101621.25;5049172;28;20029;-72
2024/01/19 04:28:46;;;;;;;8.83;3.33;;;;;;;9.75;42.30;101640.81;5050223;28;20118;-72
2024/01/19 04:31:11;;;;;;;7.17;2.30;;;;;;;9.75;42.65;101674.75;5051039;28;20032;-71
2024/01/19 04:33:37;;;;;;;2.20;1.67;;;;;;;8.24;46.53;101694.94;5048074;28;20043;-72
2024/01/19 04:36:02;;;;;;;7.40;2.43;;;;;;;8.51;46.78;101693.59;5048871;28;20128;-72
2024/01/19 04:38:31;;;;;;;4.80;1.90;;;;;;;8.96;45.94;101688.00;5050545;28;20154;-71
2024/01/19 04:40:56;;;;;;;2.73;1.97;;;;;;;8.77;46.75;101684.31;5049214;28;20053;-72
2024/01/19 04:43:21;;;;;;;5.47;1.70;;;;;;;9.78;44.90;101695.66;5050443;28;20106;-72
2024/01/19 04:45:47;;;;;;;4.70;1.83;;;;;;;9.91;45.64;101700.09;5049253;28;20460;-71
2024/01/19 04:48:12;;;;;;;11.00;2.57;;;;;;;9.44;46.57;101691.06;5049085;28;20278;-72
2024/01/19 04:50:38;;;;;;;5.90;1.33;;;;;;;10.64;43.61;101687.44;5048319;28;20031;-72
2024/01/19 04:53:04;;;;;;;4.23;1.50;;;;;;;10.97;43.52;101694.47;5050838;28;20033;-72
2024/01/19 04:55:29;;;;;;;4.80;1.20;;;;;;;11.00;42.92;101697.13;5049718;28;20108;-72
2024/01/19 04:57:55;;;;;;;2.67;1.20;;;;;;;10.65;43.80;101703.13;5049899;28;20028;-72
2024/01/19 05:00:22;;;;;;;7.07;1.37;;;;;;;10.30;43.69;101716.00;5046125;28;20473;-71
2024/01/19 05:02:48;;;;;;;7.70;2.40;;;;;;;9.94;44.87;101723.63;5031119;28;20124;-72
2024/01/19 05:05:14;;;;;;;5.90;1.50;;;;;;;9.15;46.55;101715.16;5043781;28;20099;-72
2024/01/19 05:07:40;;;;;;;4.17;2.20;;;;;;;9.69;45.75;101717.34;5049291;28;20059;-72
2024/01/19 05:10:06;;;;;;;11.77;1.90;;;;;;;10.09;45.02;101716.75;5046071;28;20029;-72
2024/01/19 05:12:32;;;;;;;4.27;1.53;;;;;;;10.16;44.73;101713.31;5029936;28;20443;-72
2024/01/19 05:14:57;;;;;;;5.03;1.43;;;;;;;10.04;44.67;101719.31;5040383;28;20025;-73
2024/01/19 05:17:22;;;;;;;3.93;0.90;;;;;;;10.02;44.71;101721.94;5049836;28;20526;-73
2024/01/19 05:19:48;;;;;;;3.90;1.67;;;;;;;9.67;44.64;101726.91;5050024;28;20053;-73
2024/01/19 05:22:13;;;;;;;2.53;1.40;;;;;;;9.87;44.13;101732.28;5049537;28;20029;-73
2024/01/19 05:24:43;;;;;;;3.40;1.30;;;;;;;9.46;45.41;101738.03;5044944;28;20473;-72
2024/01/19 05:27:09;;;;;;;2.67;1.33;;;;;;;9.59;44.79;101747.75;5030632;28;20030;-73
2024/01/19 05:29:35;;;;;;;4.93;0.80;;;;;;;9.41;45.53;101753.66;5036151;28;20139;-72
2024/01/19 05:32:01;;;;;;;4.03;0.73;;;;;;;9.48;45.39;101762.44;5048259;28;20473;-73
2024/01/19 05:34:27;;;;;;;1.63;0.83;;;;;;;9.46;45.01;101766.75;5052543;28;20443;-73
2024/01/19 05:36:53;;;;;;;3.83;1.10;;;;;;;9.44;45.54;101763.25;5053238;28;20040;-72
2024/01/19 05:39:18;;;;;;;2.40;0.70;;;;;;;9.57;45.35;101772.94;5053490;28;20036;-72
2024/01/19 05:41:43;;;;;;;1.60;1.03;;;;;;;9.37;45.16;101767.56;5052912;28;20025;-72
2024/01/19 05:44:09;;;;;;;0.63;0.60;;;;;;;9.53;44.33;101768.53;5053618;28;20485;-72
2024/01/19 05:46:34;;;;;;;3.80;0.90;;;;;;;9.17;45.72;101759.50;5053152;28;20070;-72
2024/01/19 05:48:59;;;;;;;0.80;0.80;;;;;;;9.12;44.74;101771.63;5053935;28;20056;-72
2024/01/19 05:51:25;;;;;;;4.17;1.30;;;;;;;9.26;44.04;101777.88;5052916;28;20037;-72
2024/01/19 05:53:50;;;;;;;2.83;1.30;;;;;;;9.02;44.69;101785.44;5052803;28;20039;-72
2024/01/19 05:56:15;;;;;;;5.67;1.27;;;;;;;8.89;45.11;101790.50;5053531;28;20424;-71
2024/01/19 05:58:41;;;;;;;5.23;1.20;;;;;;;9.15;44.21;101795.16;5053366;28;20025;-71
2024/01/19 06:01:06;;;;;;;1.33;0.60;;;;;;;9.20;44.42;101796.06;5055941;28;20456;-72
2024/01/19 06:03:35;;;;;;;1.97;1.07;;;;;;;8.99;44.57;101800.16;5052558;28;20033;-72
2024/01/19 06:06:04;;;;;;;1.20;0.70;;;;;;;9.30;43.71;101812.69;5039180;28;20026;-72
2024/01/19 06:08:30;;;;;;;0.90;0.90;;;;;;;9.11;44.77;101806.41;5032496;28;20460;-72
2024/01/19 06:10:56;;;;;;;0.60;0.60;;;;;;;9.79;43.81;101812.28;5043643;28;20397;-72
2024/01/19 06:13:22;;;;;;;3.30;0.73;;;;;;;9.48;44.22;101812.03;5052903;28;20489;-72
2024/01/19 06:15:47;;;;;;;1.77;0.87;;;;;;;9.44;43.91;101821.53;5050829;28;20040;-72
2024/01/19 06:18:13;;;;;;;5.17;1.13;;;;;;;8.98;44.95;101826.22;5052872;28;20040;-72
2024/01/19 06:20:41;;;;;;;9.43;1.10;;;;;;;9.11;44.84;101827.28;5050853;28;20036;-72
2024/01/19 06:23:08;;;;;;;1.80;1.00;;;;;;;9.57;43.37;101838.19;5051552;28;20029;-72
2024/01/19 06:25:33;;;;;;;4.60;1.40;;;;;;;9.12;44.39;101842.94;5051804;28;20036;-72
2024/01/19 06:27:59;;;;;;;4.87;1.27;;;;;;;9.02;44.26;101848.88;5050951;28;20044;-72
2024/01/19 06:30:24;;;;;;;1.60;1.33;;;;;;;9.16;43.39;101842.13;5052442;28;20090;-72
2024/01/19 06:32:49;;;;;;;3.23;1.30;;;;;;;8.50;44.90;101849.03;5052162;28;20423;-70
2024/01/19 06:35:15;;;;;;;1.77;1.40;;;;;;;8.60;44.63;101856.16;5051941;28;20031;-71
2024/01/19 06:37:40;;;;;;;2.53;1.30;;;;;;;8.79;43.66;101856.41;5052317;28;20056;-71
2024/01/19 06:40:07;;;;;;;7.80;1.40;;;;;;;8.46;45.25;101857.66;5050339;28;20393;-71
2024/01/19 06:42:32;;;;;;;5.50;2.30;;;;;;;8.37;45.23;101865.31;5050673;28;20044;-70
2024/01/19 06:44:58;;;;;;;4.17;1.40;;;;;;;8.30;45.39;101862.59;5051048;28;20431;-71
2024/01/19 06:47:23;;;;;;;6.97;1.20;;;;;;;8.28;44.82;101869.53;5051223;28;20056;-71
2024/01/19 06:49:49;;;;;;;6.07;1.60;;;;;;;8.19;44.87;101858.97;5051665;28;20142;-71
2024/01/19 06:52:15;;;;;;;6.00;1.93;;;;;;;8.22;45.01;101863.34;5051066;28;20029;-70
2024/01/19 06:54:40;;;;;;;6.37;2.20;;;;;;;8.14;44.98;101865.81;5050345;28;20033;-71
2024/01/19 06:57:05;;;;;;;2.87;1.43;;;;;;;8.02;45.72;101870.81;5047348;28;20035;-70
2024/01/19 06:59:32;;;;;;;2.63;1.97;;;;;;;8.15;45.40;101872.78;5032117;28;20080;-71
2024/01/19 07:01:57;;;;;;;5.03;1.77;;;;;;;8.47;44.39;101880.25;5046613;28;20119;-71
2024/01/19 07:04:24;;;;;;;2.03;1.60;;;;;;;8.29;45.27;101886.03;5049974;28;20115;-71
2024/01/19 07:06:49;;;;;;;3.53;2.27;;;;;;;8.43;44.50;101891.47;5050725;28;20029;-71
2024/01/19 07:09:17;;;;;;;3.13;2.13;;;;;;;8.18;45.48;101891.06;5052508;28;20532;-70
2024/01/19 07:11:42;;;;;;;5.17;1.80;;;;;;;8.45;43.80;101900.22;5051152;28;20032;-70
2024/01/19 07:14:08;;;;;;;5.67;3.13;;;;;;;8.58;44.19;101899.53;5052064;28;20078;-71
2024/01/19 07:16:37;;;;;;;3.13;2.03;;;;;;;8.12;45.36;101904.88;5050146;28;20024;-71
2024/01/19 07:19:03;;;;;;;7.63;2.83;;;;;;;8.36;44.40;101908.72;5051759;28;20025;-72
2024/01/19 07:21:42;;;;;;;5.10;2.30;;;;;;;8.51;44.73;101902.91;5051013;28;20583;-71
2024/01/19 07:24:10;;;;;;;4.27;3.10;;;;;;;8.08;44.76;101904.78;5051807;28;20029;-71
2024/01/19 07:26:35;;;;;;;3.63;2.70;;;;;;;8.18;45.54;101904.09;5050785;28;20035;-71
2024/01/19 07:29:04;;;;;;;3.73;2.47;;;;;;;8.26;44.29;101901.63;5051539;28;20029;-71
2024/01/19 07:31:30;;;;;;;7.67;2.87;;;;;;;8.23;45.34;101907.66;5048939;28;20036;-72
2024/01/19 07:33:56;;;;;;;11.50;3.53;;;;;;;8.55;44.33;101909.94;5049588;28;20037;-72
2024/01/19 07:36:21;;;;;;;11.20;4.43;;;;;;;8.37;45.24;101914.81;5049818;28;20112;-71
2024/01/19 07:38:47;;;;;;;5.93;3.00;;;;;;;8.68;44.28;101915.31;5048984;28;20538;-72
2024/01/19 07:41:12;;;;;;;4.77;3.80;;;;;;;8.42;44.41;101919.25;5045910;28;20488;-71
2024/01/19 07:43:37;;;;;;;5.27;4.13;;;;;;;8.02;45.65;101928.09;5049280;28;20021;-72
2024/01/19 07:46:03;;;;;;;11.43;4.10;;;;;;;8.10;45.12;101931.72;5050635;28;20017;-72
2024/01/19 07:48:31;;;;;;;12.57;4.00;;;;;;;8.14;45.55;101934.41;5051590;28;20390;-71
2024/01/19 07:50:57;;;;;;;9.70;4.47;;;;;;;7.40;47.08;101940.78;5050207;28;20075;-72
2024/01/19 07:53:22;;;;;;;7.03;4.93;;;;;;;7.79;45.47;101947.66;5051134;28;20068;-72
2024/01/19 07:55:48;;;;;;;13.13;8.13;;;;;;;8.07;45.03;101950.78;5044519;28;20037;-72
2024/01/19 07:58:13;;;;;;;10.20;6.30;;;;;;;8.12;44.88;101950.88;5050510;28;20043;-74
2024/01/19 08:00:39;;;;;;;9.10;4.33;;;;;;;8.06;45.16;101958.56;5047701;28;20452;-72
2024/01/19 08:03:04;;;;;;;9.17;4.97;;;;;;;8.11;44.67;101951.72;5036835;28;20037;-72
2024/01/19 08:05:30;;;;;;;5.73;3.60;;;;;;;8.05;45.81;101951.59;5049585;28;20052;-71
2024/01/19 08:07:56;;;;;;;15.03;4.20;;;;;;;8.16;45.15;101957.88;5050908;28;20032;-71
2024/01/19 08:10:21;;;;;;;6.60;3.17;;;;;;;7.92;46.35;101959.16;5051345;28;20024;-72
2024/01/19 08:12:46;;;;;;;10.30;3.27;;;;;;;8.49;45.31;101961.97;5050863;28;20063;-71
2024/01/19 08:15:12;;;;;;;11.13;3.73;;;;;;;8.80;45.14;101967.66;5049362;28;20430;-71
2024/01/19 08:17:37;;;;;;;5.93;3.23;;;;;;;8.81;45.29;101974.63;5050696;28;20017;-72
2024/01/19 08:20:03;;;;;;;4.07;2.80;;;;;;;9.46;44.43;101972.94;5051343;28;20033;-71
2024/01/19 08:22:32;;;;;;;7.20;3.53;;;;;;;9.49;44.54;101980.78;5050483;28;20071;-71
2024/01/19 08:24:58;;;;;;;6.57;3.23;;;;;;;9.71;43.95;101973.22;5049457;28;20032;-72
2024/01/19 08:27:23;;;;;;;6.83;3.57;;;;;;;9.60;44.24;101984.44;5050748;28;20088;-72
2024/01/19 08:29:49;;;;;;;11.40;3.47;;;;;;;9.62;44.36;101976.63;5049395;28;20497;-72
2024/01/19 08:32:14;;;;;;;10.23;3.43;;;;;;;9.71;44.12;101991.50;5049624;28;20559;-72
2024/01/19 08:34:42;;;;;;;5.23;3.47;;;;;;;9.27;46.25;101990.97;5049743;28;20140;-72
2024/01/19 08:37:08;;;;;;;7.00;3.17;;;;;;;8.95;48.45;101993.09;5051263;28;20468;-72
2024/01/19 08:39:34;;;;;;;9.00;3.10;;;;;;;9.52;47.68;101996.50;5049352;28;20150;-72
2024/01/19 08:42:00;;;;;;;10.33;3.87;;;;;;;9.83;46.41;101996.88;5050842;28;20071;-72
2024/01/19 08:44:25;;;;;;;10.10;4.17;;;;;;;10.35;45.81;102002.66;5049371;28;20033;-72
2024/01/19 08:46:50;;;;;;;6.40;3.13;;;;;;;9.15;48.01;102006.44;5048935;28;20021;-72
2024/01/19 08:49:16;;;;;;;4.93;2.67;;;;;;;9.60;47.59;102000.09;5049073;28;20025;-72
2024/01/19 08:51:43;;;;;;;9.17;2.67;;;;;;;9.80;47.25;102008.16;5050232;28;20055;-72
2024/01/19 08:54:09;;;;;;;4.03;3.00;;;;;;;10.37;45.64;102009.66;5049383;28;20032;-72
2024/01/19 08:56:34;;;;;;;3.70;2.73;;;;;;;10.64;45.57;102009.91;5047779;28;20030;-72
2024/01/19 08:59:00;;;;;;;8.53;3.23;;;;;;;10.52;45.65;102009.78;5049008;28;20020;-72
2024/01/19 09:01:26;;;;;;;4.70;3.00;;;;;;;10.46;45.51;102017.59;5050742;28;20029;-72
2024/01/19 09:03:52;;;;;;;7.33;3.03;;;;;;;10.23;46.37;102012.97;5048657;28;20025;-73
2024/01/19 09:06:17;;;;;;;10.17;2.40;;;;;;;10.51;45.52;102018.53;5050157;28;20051;-72
2024/01/19 09:08:44;;;;;;;6.07;2.37;;;;;;;10.75;44.99;102009.13;5047094;28;20029;-73
2024/01/19 09:11:12;;;;;;;4.13;2.70;;;;;;;10.63;46.51;102031.72;5052656;28;20041;-72
2024/01/19 09:13:38;;;;;;;7.33;2.33;;;;;;;10.63;46.01;102031.72;5054064;28;20033;-73
2024/01/19 09:16:10;;;;;;;7.20;2.77;;;;;;;11.08;45.60;102028.56;5054717;28;20104;-73
2024/01/19 09:18:40;;;;;;;9.52;3.35;;;;;;;10.86;45.26;102036.25;5052893;28;20025;-72
2024/01/19 09:21:06;;;;;;;5.80;3.23;;;;;;;10.93;45.22;102032.78;5053179;28;20047;-73
2024/01/19 09:23:31;;;;;;;10.57;3.20;;;;;;;11.17;44.23;102039.09;5052413;28;20063;-73
2024/01/19 09:25:57;;;;;;;5.60;3.13;;;;;;;11.05;44.21;102037.25;5054575;28;20079;-73
2024/01/19 09:28:22;;;;;;;15.57;4.17;;;;;;;11.14;43.74;102046.91;5054116;28;20031;-73
2024/01/19 09:30:48;;;;;;;6.73;3.43;;;;;;;10.91;44.32;102045.00;5052143;28;20339;-72
2024/01/19 09:33:14;;;;;;;6.87;4.00;;;;;;;10.58;44.87;102041.25;5052999;28;20066;-73
2024/01/19 09:35:40;;;;;;;14.73;3.87;;;;;;;10.52;45.11;102054.25;5053491;28;20032;-73
2024/01/19 09:38:05;;;;;;;7.23;3.93;;;;;;;9.67;46.36;102055.84;5053684;28;20059;-73
2024/01/19 09:40:32;;;;;;;13.20;5.03;;;;;;;9.94;45.97;102063.16;5053107;28;20033;-73
2024/01/19 09:42:57;;;;;;;12.87;6.03;;;;;;;9.75;46.84;102061.19;5053839;28;20029;-73
2024/01/19 09:45:26;;;;;;;14.60;6.13;;;;;;;10.07;46.49;102058.09;5052561;28;20036;-73
2024/01/19 09:48:03;;;;;;;21.20;5.20;;;;;;;10.68;45.53;102061.38;5053483;28;20111;-73
2024/01/19 09:50:36;;;;;;;8.40;4.73;;;;;;;10.14;46.59;102065.16;5053022;28;20028;-73
2024/01/19 09:53:13;;;;;;;7.90;3.90;;;;;;;9.92;46.91;102064.88;5039828;28;20079;-72
2024/01/19 09:55:38;;;;;;;13.13;4.07;;;;;;;10.21;45.63;102066.97;5052020;28;20025;-72
2024/01/19 09:58:04;;;;;;;6.00;3.70;;;;;;;10.61;45.19;102070.03;5050775;28;20079;-72
2024/01/19 10:00:30;;;;;;;9.33;3.87;;;;;;;10.70;45.10;102071.84;5051152;28;20470;-73
2024/01/19 10:02:55;;;;;;;12.60;3.43;;;;;;;10.04;46.24;102078.94;5053928;28;20119;-73
2024/01/19 10:05:21;;;;;;;5.73;2.97;;;;;;;10.10;46.32;102084.25;5051954;28;20021;-73
2024/01/19 10:07:49;;;;;;;8.60;4.37;;;;;;;10.86;44.93;102080.72;5052775;28;20476;-73
2024/01/19 10:10:15;;;;;;;8.07;4.37;;;;;;;10.86;44.62;102075.47;5052223;28;20029;-73
2024/01/19 10:12:41;;;;;;;10.60;4.33;;;;;;;10.85;44.50;102078.94;5052789;28;20071;-73
2024/01/19 10:15:11;;;;;;;5.00;3.57;;;;;;;11.48;44.26;102084.63;5052295;28;20427;-73
2024/01/19 10:17:37;;;;;;;12.27;3.70;;;;;;;11.88;43.92;102094.47;5052857;28;20032;-73
2024/01/19 10:20:04;;;;;;;9.00;4.10;;;;;;;11.34;44.55;102092.41;5051312;28;20086;-73
2024/01/19 10:22:30;;;;;;;9.70;3.77;;;;;;;11.42;44.40;102091.63;5051210;28;20075;-73
2024/01/19 10:25:04;;;;;;;7.60;3.67;;;;;;;11.40;45.26;102095.94;5052860;28;20048;-73
2024/01/19 10:27:44;;;;;;;6.20;4.30;;;;;;;11.94;45.24;102094.53;5047574;28;20037;-73
2024/01/19 10:30:16;;;;;;;8.40;3.57;;;;;;;11.67;45.07;102101.34;5051705;28;20323;-73
2024/01/19 10:32:44;;;;;;;7.40;3.73;;;;;;;12.43;43.32;102109.53;5052584;28;20024;-73
2024/01/19 10:35:13;;;;;;;14.03;5.60;;;;;;;12.50;43.57;102107.81;5052375;28;20472;-73
2024/01/19 10:37:39;;;;;;;5.13;3.50;;;;;;;12.62;43.18;102115.72;5051429;28;20024;-73
2024/01/19 10:40:21;;;;;;;7.70;4.23;;;;;;;12.49;43.92;102119.19;5052960;28;20082;-73
2024/01/19 10:42:53;;;;;;;9.63;3.83;;;;;;;12.42;43.96;102117.41;5052098;28;20526;-73
2024/01/19 10:45:24;;;;;;;5.43;3.63;;;;;;;12.41;43.71;102121.78;5052732;28;20032;-73
2024/01/19 10:47:52;;;;;;;13.80;4.47;;;;;;;13.05;42.88;102105.28;5051692;28;20599;-73
2024/01/19 10:50:19;;;;;;;6.43;3.63;;;;;;;13.22;42.26;102101.75;5051397;28;20428;-73
2024/01/19 10:52:47;;;;;;;7.03;3.63;;;;;;;13.38;42.42;102106.16;5051881;28;20041;-74
2024/01/19 10:55:18;;;;;;;11.03;3.63;;;;;;;13.30;42.39;102101.72;5051555;28;20032;-74
2024/01/19 10:57:44;;;;;;;8.37;3.73;;;;;;;13.80;42.17;102105.19;5046146;28;20029;-73
2024/01/19 11:00:29;;;;;;;10.73;3.90;;;;;;;13.93;40.92;102109.53;5050517;28;20039;-73
2024/01/19 11:03:03;;;;;;;8.87;3.77;;;;;;;13.50;41.36;102114.88;5051005;28;20025;-74
2024/01/19 11:05:29;;;;;;;11.57;3.87;;;;;;;14.72;41.42;102110.00;5051319;28;20071;-74
2024/01/19 11:07:59;;;;;;;8.57;4.00;;;;;;;14.94;40.49;102107.19;5047120;28;20030;-72
2024/01/19 11:10:27;;;;;;;6.50;3.27;;;;;;;13.42;40.65;102124.53;5045461;28;20032;-72
2024/01/19 11:12:55;;;;;;;8.43;2.00;;;;;;;13.00;41.11;102114.88;5050845;28;20040;-73
2024/01/19 11:15:24;;;;;;;5.50;1.93;;;;;;;12.23;41.80;102122.59;5051844;28;20392;-74
2024/01/19 11:17:50;;;;;;;5.77;1.87;;;;;;;12.83;41.04;102114.88;5046865;28;20041;-73
2024/01/19 11:20:15;;;;;;;6.50;1.63;;;;;;;12.54;41.45;102120.06;5050563;28;20078;-73
2024/01/19 11:22:42;;;;;;;7.37;1.60;;;;;;;12.25;41.71;102109.50;5046156;28;20022;-73
2024/01/19 11:25:13;;;;;;;3.70;1.90;;;;;;;12.33;41.62;102116.50;5039976;28;20029;-73